Time;durP1;ratioP1;P1;durP2;ratioP2;P2;SDS_P1;SDS_P2;PMS_P1;PMS_P2;Temp;Humidity;BMP_temperature;BMP_pressure;BME280_temperature;BME280_humidity;BME280_pressure;Samples;Min_cycle;Max_cycle;Signal;HPM_P1;HPM_P2
2022/02/10 00:05:30;;;;;;;0.30;0.20;;;4.60;99.90;;;;;;5093745;28;20396;-77
2022/02/10 00:08:08;;;;;;;0.30;0.30;;;4.60;99.90;;;;;;5093092;28;20552;-77
2022/02/10 00:13:42;;;;;;;0.30;0.30;;;4.60;99.90;;;;;;5093723;28;20831;-77
2022/02/10 00:21:49;;;;;;;0.97;0.40;;;4.70;99.90;;;;;;5093742;28;20493;-77
2022/02/10 00:35:24;;;;;;;0.30;0.30;;;4.70;99.90;;;;;;5093345;28;20542;-77
2022/02/10 00:37:57;;;;;;;0.30;0.30;;;4.70;99.90;;;;;;5093158;28;20478;-77
2022/02/10 00:40:26;;;;;;;0.40;0.30;;;4.70;99.90;;;;;;5094066;28;20433;-77
2022/02/10 00:42:53;;;;;;;0.30;0.20;;;4.60;99.90;;;;;;5093146;28;20440;-77
2022/02/10 00:45:21;;;;;;;0.30;0.27;;;4.60;99.90;;;;;;5093772;28;20442;-77
2022/02/10 00:47:55;;;;;;;1.07;1.07;;;4.50;99.90;;;;;;5093307;28;20472;-77
2022/02/10 00:50:25;;;;;;;0.30;0.27;;;4.50;99.90;;;;;;5093361;28;20467;-77
2022/02/10 00:52:58;;;;;;;0.30;0.20;;;4.40;99.90;;;;;;5093645;28;20452;-77
2022/02/10 00:55:28;;;;;;;0.30;0.20;;;4.40;99.90;;;;;;5093082;28;20472;-77
2022/02/10 00:57:55;;;;;;;0.40;0.30;;;4.30;99.90;;;;;;5093206;28;20818;-77
2022/02/10 01:02:13;;;;;;;0.87;0.87;;;4.30;99.90;;;;;;5096404;28;20440;-77
2022/02/10 01:24:27;;;;;;;0.30;0.30;;;3.80;99.90;;;;;;5097561;28;20486;-77
2022/02/10 01:31:04;;;;;;;0.30;0.20;;;3.40;99.90;;;;;;5096678;28;20906;-78
2022/02/10 01:33:33;;;;;;;0.30;0.20;;;3.40;99.90;;;;;;5096809;28;20447;-77
2022/02/10 01:36:01;;;;;;;0.30;0.30;;;3.30;99.90;;;;;;5096367;28;20436;-78
2022/02/10 01:38:28;;;;;;;0.60;0.60;;;3.30;99.90;;;;;;5096382;28;20428;-77
2022/02/10 02:05:40;;;;;;;0.40;0.40;;;3.10;99.90;;;;;;5096103;28;20773;-77
2022/02/10 02:08:09;;;;;;;0.30;0.20;;;3.20;99.90;;;;;;5095573;28;20494;-77
2022/02/10 02:10:36;;;;;;;0.40;0.30;;;3.20;99.90;;;;;;5095159;28;20480;-77
2022/02/10 02:13:03;;;;;;;0.30;0.20;;;3.20;99.90;;;;;;5095998;28;20447;-77
2022/02/10 02:15:30;;;;;;;0.30;0.20;;;3.30;99.90;;;;;;5096034;28;20444;-77
2022/02/10 02:17:57;;;;;;;0.57;0.47;;;3.30;99.90;;;;;;5095832;28;20471;-78
2022/02/10 02:20:24;;;;;;;0.30;0.20;;;3.40;99.90;;;;;;5096488;28;20957;-77
2022/02/10 02:22:52;;;;;;;0.50;0.50;;;3.30;99.90;;;;;;5095842;28;20448;-77
2022/02/10 02:25:20;;;;;;;0.30;0.30;;;3.30;99.90;;;;;;5095803;28;20452;-77
2022/02/10 02:31:33;;;;;;;0.30;0.30;;;3.30;99.90;;;;;;5083262;28;20526;-77
2022/02/10 03:05:24;;;;;;;0.30;0.30;;;3.80;99.90;;;;;;5095057;28;20449;-77
2022/02/10 03:07:54;;;;;;;0.30;0.30;;;3.70;99.90;;;;;;5126760;22;20516;-77
2022/02/10 03:10:43;;;;;;;0.30;0.30;;;3.70;99.90;;;;;;5094524;28;20530;-78
2022/02/10 03:13:14;;;;;;;0.30;0.20;;;3.70;99.90;;;;;;5094495;28;20463;-78
2022/02/10 03:15:54;;;;;;;0.30;0.30;;;3.70;99.90;;;;;;5094554;28;20436;-77
2022/02/10 03:18:29;;;;;;;0.30;0.20;;;3.70;99.90;;;;;;5074656;28;20428;-77
2022/02/10 03:21:18;;;;;;;0.30;0.20;;;3.70;99.90;;;;;;5074338;28;20485;-77
2022/02/10 04:05:49;;;;;;;0.30;0.30;;;3.40;99.90;;;;;;4992163;28;20567;-77
2022/02/10 04:08:30;;;;;;;0.30;0.30;;;3.30;99.90;;;;;;4991811;28;20468;-77
2022/02/10 04:13:55;;;;;;;0.30;0.20;;;3.20;99.90;;;;;;5066252;28;20981;-77
2022/02/10 04:16:25;;;;;;;0.30;0.30;;;3.20;99.90;;;;;;5073106;28;20464;-77
2022/02/10 04:19:32;;;;;;;0.30;0.20;;;3.10;99.90;;;;;;5073600;28;20441;-77
2022/02/10 04:21:58;;;;;;;0.40;0.30;;;3.10;99.90;;;;;;5073071;28;20523;-77
2022/02/10 04:27:14;;;;;;;0.30;0.30;;;3.00;99.90;;;;;;5072118;28;20464;-78
2022/02/10 04:37:13;;;;;;;0.57;0.57;;;2.90;99.90;;;;;;5073105;28;20412;-77
2022/02/10 04:55:17;;;;;;;0.50;0.40;;;3.10;99.90;;;;;;5093489;28;20898;-77
2022/02/10 05:00:39;;;;;;;0.40;0.40;;;3.40;99.90;;;;;;5082248;28;20938;-78
2022/02/10 05:22:34;;;;;;;0.30;0.30;;;3.40;99.90;;;;;;5092043;28;20443;-77
2022/02/10 05:35:59;;;;;;;0.30;0.20;;;3.30;99.90;;;;;;5082064;28;20480;-77
2022/02/10 05:38:30;;;;;;;0.30;0.20;;;3.30;99.90;;;;;;5092963;28;20856;-77
2022/02/10 05:41:46;;;;;;;0.30;0.30;;;3.30;99.90;;;;;;5092978;28;20433;-78
2022/02/10 05:44:24;;;;;;;0.30;0.30;;;3.20;99.90;;;;;;5092372;28;20435;-78
2022/02/10 05:47:13;;;;;;;0.30;0.30;;;3.20;99.90;;;;;;5095896;28;20982;-77
2022/02/10 05:55:34;;;;;;;0.30;0.30;;;3.30;99.90;;;;;;5096098;28;20992;-77
2022/02/10 05:58:08;;;;;;;0.30;0.30;;;3.30;99.90;;;;;;5096239;28;20471;-77
2022/02/10 06:53:37;;;;;;;0.30;0.30;;;3.40;99.90;;;;;;5075005;28;20454;-79
2022/02/10 06:56:38;;;;;;;0.30;0.20;;;3.40;99.90;;;;;;5074714;28;20530;-79
2022/02/10 07:14:51;;;;;;;0.30;0.30;;;3.50;99.90;;;;;;5131905;27;20389;-78
2022/02/10 07:48:22;;;;;;;0.40;0.40;;;4.00;99.90;;;;;;5107268;22;20863;-79
2022/02/10 07:53:58;;;;;;;0.30;0.20;;;4.10;99.90;;;;;;5066746;28;20421;-79
2022/02/10 07:56:44;;;;;;;0.30;0.30;;;4.20;99.90;;;;;;5069739;28;20492;-79
2022/02/10 08:51:21;;;;;;;0.30;0.30;;;6.50;99.90;;;;;;5116347;28;20411;-79
2022/02/10 08:56:32;;;;;;;0.30;0.20;;;7.00;99.90;;;;;;5039929;28;20497;-79
2022/02/10 08:59:26;;;;;;;0.40;0.30;;;7.40;99.90;;;;;;5116088;28;20449;-79
2022/02/10 09:02:14;;;;;;;0.30;0.30;;;7.70;99.90;;;;;;5115991;28;20519;-79
2022/02/10 09:04:54;;;;;;;0.50;0.40;;;8.20;99.90;;;;;;5115968;28;20432;-79
2022/02/10 09:07:45;;;;;;;0.30;0.30;;;8.80;99.90;;;;;;5115652;28;20471;-79
2022/02/10 09:13:11;;;;;;;0.70;0.47;;;10.80;99.90;;;;;;5115557;28;20398;-79
2022/02/10 09:16:06;;;;;;;0.30;0.30;;;11.70;99.90;;;;;;5115927;28;20557;-79
2022/02/10 09:18:56;;;;;;;0.37;0.30;;;12.70;99.90;;;;;;5115443;28;20495;-80
2022/02/10 09:21:56;;;;;;;0.60;0.37;;;13.80;99.90;;;;;;5115757;28;20530;-80
2022/02/10 10:01:16;;;;;;;0.50;0.40;;;22.30;54.80;;;;;;5028603;28;20238;-79
2022/02/10 10:03:53;;;;;;;2.47;0.60;;;21.50;54.80;;;;;;5100287;28;20204;-79
2022/02/10 10:06:28;;;;;;;3.20;0.93;;;20.90;58.00;;;;;;5114383;28;20711;-79
2022/02/10 10:09:15;;;;;;;1.13;0.50;;;20.00;56.30;;;;;;5114275;28;20228;-79
2022/02/10 10:12:20;;;;;;;2.20;0.87;;;19.40;57.90;;;;;;5114309;28;20181;-79
2022/02/10 10:15:04;;;;;;;0.47;0.47;;;18.30;59.50;;;;;;5114575;28;20521;-79
2022/02/10 10:17:50;;;;;;;1.00;0.67;;;17.80;60.30;;;;;;5114402;28;20482;-79
2022/02/10 10:20:27;;;;;;;0.50;0.50;;;17.80;62.50;;;;;;5114472;28;20435;-79
2022/02/10 10:23:11;;;;;;;1.23;0.50;;;17.20;62.50;;;;;;5114615;28;20439;-80
2022/02/10 10:50:47;;;;;;;0.60;0.50;;;13.50;73.90;;;;;;5114145;28;20395;-78
2022/02/10 10:53:20;;;;;;;0.40;0.40;;;13.10;75.70;;;;;;5114224;28;20435;-79
2022/02/10 10:55:53;;;;;;;0.80;0.73;;;13.00;76.60;;;;;;5114161;28;20459;-80
2022/02/10 10:58:31;;;;;;;1.13;0.50;;;13.00;77.20;;;;;;5114182;28;20436;-80
2022/02/10 11:38:28;;;;;;;1.30;1.27;;;13.20;84.20;;;;;;5113598;28;20812;-79
2022/02/10 11:41:27;;;;;;;0.73;0.73;;;13.50;84.00;;;;;;5101118;28;20462;-79
2022/02/10 12:39:08;;;;;;;0.60;0.60;;;12.20;88.70;;;;;;5116578;28;20465;-79
2022/02/10 14:18:25;;;;;;;0.50;0.47;;;10.00;99.90;;;;;;5025922;28;21013;-80
2022/02/10 14:21:14;;;;;;;0.47;0.43;;;10.00;99.90;;;;;;5026454;28;20434;-80
2022/02/10 14:26:46;;;;;;;0.37;0.30;;;9.90;99.90;;;;;;5026313;28;20446;-80
2022/02/10 14:29:13;;;;;;;0.87;0.83;;;9.70;99.90;;;;;;5026681;28;20431;-79
2022/02/10 14:31:52;;;;;;;0.60;0.60;;;9.70;99.90;;;;;;5026481;28;20457;-80
2022/02/10 14:34:24;;;;;;;0.30;0.30;;;9.60;99.90;;;;;;5025999;28;20973;-80
2022/02/10 14:37:10;;;;;;;1.00;0.60;;;9.50;99.90;;;;;;5026405;28;20471;-81
2022/02/10 14:39:58;;;;;;;0.30;0.30;;;9.50;99.90;;;;;;5026214;28;20445;-80
2022/02/10 14:43:10;;;;;;;0.60;0.60;;;9.50;99.90;;;;;;5026342;28;20439;-80
2022/02/10 15:22:02;;;;;;;0.50;0.50;;;8.60;99.90;;;;;;4952193;29;20502;-79
2022/02/10 15:36:11;;;;;;;0.60;0.60;;;8.50;99.90;;;;;;5012324;28;20462;-80
2022/02/10 15:50:30;;;;;;;0.30;0.20;;;8.30;99.90;;;;;;5011357;28;20443;-80
2022/02/10 15:53:20;;;;;;;0.30;0.27;;;8.30;99.90;;;;;;5012119;28;20530;-80
2022/02/10 15:56:24;;;;;;;0.30;0.30;;;8.20;99.90;;;;;;5011699;28;21108;-80
2022/02/10 16:18:12;;;;;;;0.70;0.70;;;8.00;99.90;;;;;;5011398;28;20999;-80
2022/02/10 16:20:47;;;;;;;0.50;0.50;;;7.90;99.90;;;;;;5011792;28;20436;-79
2022/02/10 16:23:17;;;;;;;0.40;0.40;;;7.80;99.90;;;;;;5011723;28;20458;-80
2022/02/10 16:25:49;;;;;;;0.30;0.30;;;7.90;99.90;;;;;;5011669;28;20459;-79
2022/02/10 16:28:25;;;;;;;0.40;0.40;;;7.80;99.90;;;;;;5011777;28;20840;-79
2022/02/10 16:30:53;;;;;;;0.67;0.53;;;7.80;99.90;;;;;;5011616;28;20443;-79
2022/02/10 16:33:20;;;;;;;0.40;0.30;;;7.80;99.90;;;;;;5011324;28;20447;-79
2022/02/10 16:35:48;;;;;;;2.43;0.40;;;7.80;99.90;;;;;;5011382;28;20441;-79
2022/02/10 16:38:15;;;;;;;1.80;0.40;;;7.70;99.90;;;;;;5011461;28;20436;-79
2022/02/10 16:40:42;;;;;;;0.30;0.30;;;7.70;99.90;;;;;;5011392;28;20444;-79
2022/02/10 16:43:09;;;;;;;0.30;0.20;;;7.60;99.90;;;;;;5011334;28;20439;-79
2022/02/10 16:45:36;;;;;;;0.30;0.30;;;7.60;99.90;;;;;;5011115;28;20918;-79
2022/02/10 16:48:04;;;;;;;0.30;0.30;;;7.60;99.90;;;;;;5011256;28;20467;-79
2022/02/10 16:50:31;;;;;;;0.30;0.30;;;7.50;99.90;;;;;;5011329;28;20493;-79
2022/02/10 16:53:03;;;;;;;0.30;0.20;;;7.50;99.90;;;;;;5010954;28;20450;-78
2022/02/10 16:55:41;;;;;;;0.30;0.20;;;7.60;99.90;;;;;;5011212;28;20468;-79
2022/02/10 16:58:19;;;;;;;1.60;0.40;;;7.60;99.90;;;;;;5010770;28;21073;-79
2022/02/10 17:03:44;;;;;;;0.40;0.40;;;7.50;99.90;;;;;;5000204;28;20531;-78
2022/02/10 17:14:56;;;;;;;0.30;0.30;;;7.40;99.90;;;;;;5010994;28;20404;-81
2022/02/10 17:17:31;;;;;;;0.50;0.30;;;7.40;99.90;;;;;;5010372;28;20521;-81
2022/02/10 17:20:24;;;;;;;0.50;0.33;;;7.40;99.90;;;;;;5010982;28;20467;-86
2022/02/10 17:25:39;;;;;;;0.30;0.30;;;7.40;99.90;;;;;;5010812;28;20601;-81
2022/02/10 17:46:39;;;;;;;0.30;0.30;;;7.20;99.90;;;;;;5072900;28;21023;-81
2022/02/10 17:53:23;;;;;;;0.33;0.33;;;7.10;99.90;;;;;;5046375;28;20489;-81
2022/02/10 18:03:05;;;;;;;0.30;0.30;;;7.00;99.90;;;;;;5093098;28;20671;-80
2022/02/10 18:22:04;;;;;;;0.40;0.30;;;6.90;99.90;;;;;;5043709;28;20430;-80
2022/02/10 18:25:03;;;;;;;0.30;0.30;;;6.90;99.90;;;;;;5102282;28;20470;-80
2022/02/10 19:02:23;;;;;;;0.40;0.40;;;6.70;99.90;;;;;;5116351;28;20465;-79
2022/02/10 19:07:38;;;;;;;0.30;0.20;;;6.70;99.90;;;;;;5116160;28;20446;-79
2022/02/10 19:10:09;;;;;;;0.40;0.40;;;6.60;99.90;;;;;;5116422;28;20430;-79
2022/02/10 19:12:44;;;;;;;0.30;0.30;;;6.60;99.90;;;;;;5116053;28;20948;-79
2022/02/10 19:15:16;;;;;;;0.50;0.30;;;6.60;99.90;;;;;;5116001;28;20436;-79
2022/02/10 19:17:44;;;;;;;0.30;0.30;;;6.60;99.90;;;;;;5115882;27;20477;-79
2022/02/10 19:20:12;;;;;;;15.73;1.07;;;6.60;99.90;;;;;;5116177;28;20443;-79
2022/02/10 19:22:40;;;;;;;0.30;0.30;;;6.60;99.90;;;;;;5116093;28;20450;-79
2022/02/10 19:25:10;;;;;;;0.30;0.30;;;6.60;99.90;;;;;;5116031;28;20475;-79
2022/02/10 19:27:38;;;;;;;0.40;0.40;;;6.60;99.90;;;;;;5115586;28;20454;-79
2022/02/10 19:30:08;;;;;;;0.30;0.20;;;6.60;99.90;;;;;;5115986;28;20942;-79
2022/02/10 19:32:35;;;;;;;0.73;0.33;;;6.60;99.90;;;;;;5115490;28;20484;-79
2022/02/10 19:35:02;;;;;;;0.87;0.63;;;6.50;99.90;;;;;;5115881;28;20521;-79
2022/02/10 19:37:31;;;;;;;0.30;0.20;;;6.40;99.90;;;;;;5115444;28;20479;-79
2022/02/10 19:40:00;;;;;;;0.30;0.30;;;6.40;99.90;;;;;;5115791;28;20450;-79
2022/02/10 19:42:32;;;;;;;0.40;0.40;;;6.30;99.90;;;;;;5115413;28;20972;-79
2022/02/10 19:45:00;;;;;;;0.30;0.30;;;6.30;99.90;;;;;;5115586;28;20467;-79
2022/02/10 19:47:27;;;;;;;0.30;0.20;;;6.30;99.90;;;;;;5115453;28;20495;-79
2022/02/10 19:49:55;;;;;;;1.73;0.50;;;6.20;99.90;;;;;;5115272;28;20961;-79
2022/02/10 19:52:22;;;;;;;0.30;0.30;;;6.20;99.90;;;;;;5115535;28;20451;-78
2022/02/10 19:54:51;;;;;;;0.37;0.37;;;6.20;99.90;;;;;;5115468;28;20447;-79
2022/02/10 19:57:19;;;;;;;0.40;0.30;;;6.10;99.90;;;;;;5115048;28;20573;-79
2022/02/10 19:59:48;;;;;;;0.30;0.20;;;6.10;99.90;;;;;;5115449;28;20934;-79
2022/02/10 20:02:17;;;;;;;0.50;0.30;;;6.10;99.90;;;;;;5115360;28;20450;-80
2022/02/10 20:04:44;;;;;;;0.40;0.30;;;6.10;99.90;;;;;;5115198;28;20502;-80
2022/02/10 20:07:12;;;;;;;0.30;0.20;;;6.10;99.90;;;;;;5121824;22;20494;-80
2022/02/10 20:09:39;;;;;;;0.83;0.40;;;6.10;99.90;;;;;;5115205;28;20538;-80
2022/02/10 20:12:06;;;;;;;0.30;0.30;;;6.10;99.90;;;;;;5135593;27;20446;-80
2022/02/10 20:14:32;;;;;;;0.30;0.30;;;6.10;99.90;;;;;;5135637;27;20446;-80
2022/02/10 20:17:01;;;;;;;0.30;0.30;;;6.10;99.90;;;;;;5124969;27;20463;-80
2022/02/10 20:19:28;;;;;;;0.77;0.37;;;6.10;99.90;;;;;;5115036;28;20459;-79
2022/02/10 20:21:55;;;;;;;0.30;0.20;;;6.10;99.90;;;;;;5114985;28;20504;-80
2022/02/10 20:24:22;;;;;;;0.40;0.40;;;6.10;99.90;;;;;;5114507;28;20865;-79
2022/02/10 20:26:49;;;;;;;0.30;0.30;;;6.10;99.90;;;;;;5114482;28;20519;-80
2022/02/10 20:29:16;;;;;;;1.27;0.40;;;6.10;99.90;;;;;;5114780;28;20442;-80
2022/02/10 20:31:43;;;;;;;0.30;0.30;;;6.20;99.90;;;;;;5114763;28;20451;-80
2022/02/10 20:34:13;;;;;;;0.30;0.30;;;6.10;99.90;;;;;;5114395;28;20926;-80
2022/02/10 20:36:40;;;;;;;0.30;0.30;;;6.20;99.90;;;;;;5114924;28;20462;-79
2022/02/10 20:39:16;;;;;;;0.93;0.93;;;6.20;99.90;;;;;;5114227;28;20447;-79
2022/02/10 20:41:49;;;;;;;0.77;0.70;;;6.30;99.90;;;;;;5114250;28;20920;-80
2022/02/10 20:44:18;;;;;;;0.30;0.30;;;6.30;99.90;;;;;;5113789;28;20446;-79
2022/02/10 20:46:55;;;;;;;0.70;0.40;;;6.30;99.90;;;;;;5114044;28;20471;-79
2022/02/10 20:49:27;;;;;;;0.30;0.20;;;6.30;99.90;;;;;;5112780;28;20442;-80
2022/02/10 20:51:58;;;;;;;0.47;0.47;;;6.30;99.90;;;;;;5114096;28;20442;-80
2022/02/10 20:54:27;;;;;;;0.30;0.30;;;6.30;99.90;;;;;;5114402;28;20424;-80
2022/02/10 20:57:08;;;;;;;0.40;0.30;;;6.30;99.90;;;;;;5114246;28;20503;-80
2022/02/10 20:59:47;;;;;;;0.80;0.80;;;6.20;99.90;;;;;;5113921;28;20435;-80
2022/02/10 21:02:26;;;;;;;0.30;0.30;;;6.20;99.90;;;;;;5113902;28;20431;-82
2022/02/10 21:04:58;;;;;;;0.50;0.30;;;6.20;99.90;;;;;;5114283;28;20520;-82
2022/02/10 21:07:51;;;;;;;0.30;0.20;;;6.10;99.90;;;;;;5113949;28;20562;-80
2022/02/10 21:10:27;;;;;;;0.30;0.20;;;6.10;99.90;;;;;;5114128;28;20432;-80
2022/02/10 21:13:13;;;;;;;0.30;0.27;;;6.10;99.90;;;;;;5113756;28;20855;-80
2022/02/10 21:15:48;;;;;;;0.83;0.83;;;6.00;99.90;;;;;;5113708;28;20925;-80
2022/02/10 21:18:19;;;;;;;0.30;0.30;;;6.00;99.90;;;;;;5113742;28;20421;-80
2022/02/10 21:21:07;;;;;;;0.30;0.20;;;6.00;99.90;;;;;;5113826;28;20435;-80
2022/02/10 21:23:43;;;;;;;0.40;0.30;;;6.10;99.90;;;;;;5113484;28;20446;-80
2022/02/10 21:26:12;;;;;;;0.33;0.33;;;6.10;99.90;;;;;;5136310;22;20569;-80
2022/02/10 21:28:41;;;;;;;0.30;0.30;;;6.10;99.90;;;;;;5093105;28;20481;-80
2022/02/10 21:31:09;;;;;;;0.30;0.20;;;6.10;99.90;;;;;;5113438;28;20938;-80
2022/02/10 21:33:59;;;;;;;0.30;0.20;;;6.00;99.90;;;;;;5113879;28;20434;-80
2022/02/10 21:39:24;;;;;;;0.40;0.40;;;6.00;99.90;;;;;;5113831;28;20480;-80
2022/02/10 21:42:52;;;;;;;0.30;0.30;;;6.00;99.90;;;;;;5113512;28;20890;-80
2022/02/10 21:54:15;;;;;;;0.30;0.20;;;6.00;99.90;;;;;;5113633;28;20407;-80
2022/02/10 21:56:40;;;;;;;0.30;0.20;;;5.90;99.90;;;;;;5116128;28;20474;-80
2022/02/10 21:59:28;;;;;;;0.50;0.50;;;5.90;99.90;;;;;;5117917;28;20435;-80
2022/02/10 22:10:31;;;;;;;0.30;0.20;;;6.00;99.90;;;;;;5041551;28;20434;-80
2022/02/10 22:18:48;;;;;;;0.30;0.30;;;6.10;99.90;;;;;;5034893;28;20395;-79
2022/02/10 22:21:20;;;;;;;0.30;0.30;;;6.20;99.90;;;;;;5084920;28;20492;-80
2022/02/10 22:23:48;;;;;;;0.30;0.30;;;6.20;99.90;;;;;;5117526;28;20438;-80
2022/02/10 22:26:23;;;;;;;0.30;0.20;;;6.20;99.90;;;;;;5116579;28;20514;-80
2022/02/10 22:28:55;;;;;;;0.60;0.60;;;6.20;99.90;;;;;;5117253;28;20444;-80
2022/02/10 22:31:33;;;;;;;0.37;0.37;;;6.20;99.90;;;;;;5117204;28;20488;-80
2022/02/10 22:36:44;;;;;;;0.40;0.40;;;6.20;99.90;;;;;;5112925;28;20454;-80
2022/02/10 22:39:12;;;;;;;0.40;0.40;;;6.20;99.90;;;;;;5116678;28;20489;-80
2022/02/10 22:41:41;;;;;;;0.97;0.97;;;6.20;99.90;;;;;;5116939;28;20447;-80
2022/02/10 22:44:08;;;;;;;0.40;0.40;;;6.30;99.90;;;;;;5116863;28;20439;-80
2022/02/10 22:46:35;;;;;;;0.50;0.50;;;6.30;99.90;;;;;;5116345;28;20486;-80
2022/02/10 22:49:02;;;;;;;0.50;0.30;;;6.30;99.90;;;;;;5116789;28;20447;-80
2022/02/10 22:51:32;;;;;;;0.37;0.27;;;6.30;99.90;;;;;;5116423;28;20817;-80
2022/02/10 22:53:59;;;;;;;0.50;0.50;;;6.30;99.90;;;;;;5116362;28;20866;-80
2022/02/10 22:56:29;;;;;;;1.50;0.47;;;6.30;99.90;;;;;;5116559;28;20470;-80
2022/02/10 22:58:58;;;;;;;0.30;0.30;;;6.40;99.90;;;;;;5116604;28;20447;-80
2022/02/10 23:01:25;;;;;;;0.30;0.30;;;6.40;99.90;;;;;;5116286;28;20435;-80
2022/02/10 23:03:52;;;;;;;0.30;0.20;;;6.40;99.90;;;;;;5116555;28;20806;-80
2022/02/10 23:06:19;;;;;;;0.37;0.37;;;6.40;99.90;;;;;;5120218;28;20487;-80
2022/02/10 23:08:46;;;;;;;0.30;0.30;;;6.40;99.90;;;;;;5117922;28;20458;-80
2022/02/10 23:11:14;;;;;;;0.30;0.20;;;6.40;99.90;;;;;;5116435;28;20454;-80
2022/02/10 23:13:45;;;;;;;0.40;0.33;;;6.40;99.90;;;;;;5116355;28;20447;-80
2022/02/10 23:16:14;;;;;;;0.30;0.30;;;6.40;99.90;;;;;;5115978;28;21000;-81
2022/02/10 23:18:42;;;;;;;0.30;0.30;;;6.40;99.90;;;;;;5116012;28;20427;-80
2022/02/10 23:21:13;;;;;;;0.40;0.30;;;6.50;99.90;;;;;;5116190;28;20443;-80
2022/02/10 23:23:43;;;;;;;0.30;0.20;;;6.50;99.90;;;;;;5116202;28;20480;-80
2022/02/10 23:26:11;;;;;;;1.23;0.40;;;6.50;99.90;;;;;;5115404;28;20489;-80
2022/02/10 23:28:39;;;;;;;0.40;0.33;;;6.50;99.90;;;;;;5116093;28;20438;-80
2022/02/10 23:31:10;;;;;;;0.30;0.30;;;6.50;99.90;;;;;;5115976;28;20458;-79
2022/02/10 23:33:40;;;;;;;3.43;0.77;;;6.50;99.90;;;;;;5115994;28;20471;-80
2022/02/10 23:39:00;;;;;;;0.30;0.30;;;6.50;99.90;;;;;;5115991;28;20453;-80
2022/02/10 23:44:24;;;;;;;0.30;0.20;;;6.50;99.90;;;;;;5115483;28;20402;-80
2022/02/10 23:46:52;;;;;;;0.70;0.50;;;6.50;99.90;;;;;;5115293;28;20482;-80
2022/02/10 23:49:22;;;;;;;0.30;0.30;;;6.50;99.90;;;;;;5115417;28;20428;-80
2022/02/10 23:51:54;;;;;;;0.30;0.30;;;6.60;99.90;;;;;;5116505;28;20530;-80
2022/02/10 23:54:21;;;;;;;0.30;0.20;;;6.60;99.90;;;;;;5115609;28;20424;-80
2022/02/10 23:56:52;;;;;;;0.30;0.30;;;6.60;99.90;;;;;;5115444;28;20467;-80
2022/02/10 23:59:30;;;;;;;0.40;0.40;;;6.60;99.90;;;;;;5115474;28;20427;-80
